createdAt,value
2022-12-11T00:01:43.065Z,99.90
2022-12-11T00:06:45.332Z,99.90
2022-12-11T00:11:47.656Z,99.90
2022-12-11T00:16:50.065Z,99.90
2022-12-11T00:21:52.877Z,99.90
2022-12-11T00:26:55.176Z,99.90
2022-12-11T00:31:57.674Z,99.90
2022-12-11T00:37:00.069Z,99.90
2022-12-11T00:42:02.425Z,99.90
2022-12-11T00:47:04.657Z,99.90
2022-12-11T00:52:06.869Z,99.90
2022-12-11T00:57:09.224Z,99.90
2022-12-11T01:02:11.455Z,99.90
2022-12-11T01:07:13.798Z,99.90
2022-12-11T01:12:16.062Z,99.90
2022-12-11T01:17:18.275Z,99.90
2022-12-11T01:22:20.607Z,99.90
2022-12-11T01:27:23.017Z,99.90
2022-12-11T01:32:25.250Z,99.90
2022-12-11T01:37:27.467Z,99.90
2022-12-11T01:42:29.717Z,99.90
2022-12-11T01:47:32.043Z,99.90
2022-12-11T01:52:34.494Z,99.90
2022-12-11T01:57:41.237Z,99.90
2022-12-11T02:02:43.986Z,99.90
2022-12-11T02:07:50.661Z,99.90
2022-12-11T02:13:05.517Z,99.90
2022-12-11T02:18:34.030Z,99.90
2022-12-11T02:24:01.480Z,99.90
2022-12-11T02:29:13.038Z,99.90
2022-12-11T02:34:18.776Z,99.90
2022-12-11T02:39:22.827Z,99.80
2022-12-11T02:44:29.441Z,99.60
2022-12-11T02:49:33.931Z,99.80
2022-12-11T02:54:38.051Z,99.60
2022-12-11T02:59:44.167Z,99.60
2022-12-11T03:04:47.706Z,99.40
2022-12-11T03:09:51.272Z,99.50
2022-12-11T03:14:53.773Z,99.50
2022-12-11T03:20:09.863Z,99.00
2022-12-11T03:25:24.589Z,99.70
2022-12-11T03:30:28.972Z,99.50
2022-12-11T03:35:48.478Z,99.40
2022-12-11T03:40:55.751Z,99.00
2022-12-11T03:45:59.754Z,98.80
2022-12-11T03:51:05.248Z,98.60
2022-12-11T03:56:10.318Z,98.70
2022-12-11T04:01:12.801Z,98.20
2022-12-11T04:06:15.226Z,97.80
2022-12-11T04:11:35.878Z,97.80
2022-12-11T04:16:38.523Z,98.00
2022-12-11T04:21:59.435Z,97.60
2022-12-11T04:27:02.403Z,97.40
2022-12-11T04:32:05.054Z,98.00
2022-12-11T04:37:07.479Z,97.60
2022-12-11T04:42:09.893Z,97.60
2022-12-11T04:47:12.374Z,98.00
2022-12-11T04:52:14.742Z,97.90
2022-12-11T04:57:17.212Z,97.30
2022-12-11T05:02:20.760Z,97.20
2022-12-11T05:07:23.098Z,96.90
2022-12-11T05:12:25.532Z,96.60
2022-12-11T05:17:27.946Z,96.80
2022-12-11T05:22:31.990Z,96.80
2022-12-11T05:27:35.126Z,96.80
2022-12-11T05:32:37.615Z,97.00
2022-12-11T05:37:40.031Z,96.80
2022-12-11T05:42:42.294Z,96.30
2022-12-11T05:47:44.504Z,96.50
2022-12-11T05:52:46.768Z,96.50
2022-12-11T05:57:49.037Z,96.60
2022-12-11T06:02:51.476Z,96.40
2022-12-11T06:07:53.819Z,96.90
2022-12-11T06:12:56.164Z,96.70
2022-12-11T06:17:58.382Z,97.00
2022-12-11T06:23:01.598Z,96.80
2022-12-11T06:28:04.166Z,96.70
2022-12-11T06:33:06.904Z,96.70
2022-12-11T06:38:10.681Z,97.00
2022-12-11T06:43:13.087Z,97.00
2022-12-11T06:48:15.460Z,97.00
2022-12-11T06:53:17.861Z,96.80
2022-12-11T06:58:20.223Z,96.10
2022-12-11T07:03:22.433Z,95.90
2022-12-11T07:08:24.698Z,96.00
2022-12-11T07:13:26.953Z,96.10
2022-12-11T07:18:29.229Z,96.20
2022-12-11T07:23:31.463Z,96.70
2022-12-11T07:28:34.792Z,97.60
2022-12-11T07:33:37.319Z,97.80
2022-12-11T07:38:40.538Z,97.60
2022-12-11T07:43:43.509Z,97.60
2022-12-11T07:48:47.529Z,97.40
2022-12-11T07:53:50.515Z,97.20
2022-12-11T07:58:52.837Z,96.70
2022-12-11T08:03:56.170Z,96.50
2022-12-11T08:08:59.662Z,96.10
2022-12-11T08:14:02.640Z,96.30
2022-12-11T08:19:04.875Z,96.40
2022-12-11T08:24:08.065Z,95.90
2022-12-11T08:29:11.185Z,95.60
2022-12-11T08:34:14.192Z,95.40
2022-12-11T08:39:16.452Z,94.70
2022-12-11T08:44:19.873Z,94.80
2022-12-11T08:49:22.123Z,94.50
2022-12-11T08:54:24.342Z,94.90
2022-12-11T08:59:26.560Z,95.00
2022-12-11T09:04:28.764Z,94.80
2022-12-11T09:09:30.996Z,94.80
2022-12-11T09:14:33.289Z,95.10
2022-12-11T09:19:35.500Z,95.20
2022-12-11T09:24:38.404Z,95.30
2022-12-11T09:29:41.003Z,95.60
2022-12-11T09:34:43.337Z,95.60
2022-12-11T09:39:45.676Z,94.70
2022-12-11T09:45:00.604Z,95.10
2022-12-11T09:50:09.025Z,95.00
2022-12-11T09:55:20.533Z,94.80
2022-12-11T10:00:26.725Z,94.70
2022-12-11T10:05:38.316Z,94.60
2022-12-11T10:10:59.065Z,94.60
2022-12-11T10:16:14.168Z,94.50
2022-12-11T10:21:18.336Z,94.70
2022-12-11T10:26:23.086Z,94.30
2022-12-11T10:31:46.909Z,94.30
2022-12-11T10:36:49.212Z,94.20
2022-12-11T10:41:53.167Z,94.90
2022-12-11T10:47:13.764Z,94.70
2022-12-11T10:52:23.697Z,94.70
2022-12-11T10:57:32.845Z,94.80
2022-12-11T11:02:38.607Z,95.10
2022-12-11T11:07:41.147Z,95.00
2022-12-11T11:12:48.595Z,95.10
2022-12-11T11:17:55.877Z,94.90
2022-12-11T11:23:01.355Z,94.70
2022-12-11T11:28:21.259Z,94.90
2022-12-11T11:33:24.701Z,94.60
2022-12-11T11:38:37.748Z,94.60
2022-12-11T11:43:56.260Z,94.20
2022-12-11T11:49:17.597Z,94.00
2022-12-11T11:54:33.508Z,94.10
2022-12-11T11:59:42.801Z,94.30
2022-12-11T12:04:46.842Z,93.90
2022-12-11T12:09:55.643Z,93.90
2022-12-11T12:15:20.099Z,93.30
2022-12-11T12:20:44.164Z,93.60
2022-12-11T12:26:18.748Z,93.00
2022-12-11T12:31:38.216Z,92.80
2022-12-11T12:36:51.312Z,92.80
2022-12-11T12:42:07.951Z,92.10
2022-12-11T12:47:14.472Z,92.00
2022-12-11T12:52:18.139Z,91.70
2022-12-11T12:57:21.212Z,92.00
2022-12-11T13:02:23.459Z,92.50
2022-12-11T13:07:30.244Z,92.20
2022-12-11T13:12:45.336Z,92.20
2022-12-11T13:17:47.545Z,92.70
2022-12-11T13:23:07.772Z,93.00
2022-12-11T13:28:26.651Z,93.10
2022-12-11T13:33:30.533Z,93.60
2022-12-11T13:38:33.306Z,93.50
2022-12-11T13:43:35.885Z,94.10
2022-12-11T13:48:57.286Z,94.20
2022-12-11T13:54:16.488Z,94.50
2022-12-11T13:59:32.731Z,94.80
2022-12-11T14:04:35.533Z,94.80
2022-12-11T14:09:45.701Z,95.00
2022-12-11T14:14:57.000Z,95.20
2022-12-11T14:20:02.745Z,95.20
2022-12-11T14:25:19.584Z,95.20
2022-12-11T14:30:33.168Z,95.30
2022-12-11T14:35:41.987Z,95.50
2022-12-11T14:40:49.514Z,95.70
2022-12-11T14:45:57.974Z,95.60
2022-12-11T14:51:03.701Z,96.50
2022-12-11T14:56:09.522Z,96.60
2022-12-11T15:01:29.727Z,96.80
2022-12-11T15:06:34.574Z,97.00
2022-12-11T15:11:36.824Z,97.40
2022-12-11T15:16:41.798Z,97.40
2022-12-11T15:21:44.181Z,98.10
2022-12-11T15:26:47.998Z,98.20
2022-12-11T15:32:08.794Z,98.30
2022-12-11T15:37:25.271Z,98.30
2022-12-11T15:42:39.978Z,98.60
2022-12-11T15:47:43.488Z,99.10
2022-12-11T15:52:46.537Z,99.40
2022-12-11T15:57:58.053Z,99.90
2022-12-11T16:03:00.337Z,99.90
2022-12-11T16:08:02.609Z,99.90
2022-12-11T16:13:04.920Z,99.90
2022-12-11T16:18:10.252Z,99.90
2022-12-11T16:23:13.488Z,99.90
2022-12-11T16:28:18.230Z,99.90
2022-12-11T16:33:20.463Z,99.90
2022-12-11T16:38:22.677Z,99.90
2022-12-11T16:43:24.912Z,99.90
2022-12-11T16:48:27.153Z,99.90
2022-12-11T16:53:31.129Z,99.90
2022-12-11T16:58:33.692Z,99.90
2022-12-11T17:03:35.918Z,99.90
2022-12-11T17:08:38.631Z,99.90
2022-12-11T17:13:41.339Z,99.90
2022-12-11T17:18:43.958Z,99.90
2022-12-11T17:23:46.325Z,99.90
2022-12-11T17:28:48.592Z,99.90
2022-12-11T17:33:50.905Z,99.90
2022-12-11T17:38:54.206Z,99.90
2022-12-11T17:43:56.579Z,99.90
2022-12-11T17:49:00.226Z,99.90
2022-12-11T17:54:02.646Z,99.90
2022-12-11T17:59:04.957Z,99.90
2022-12-11T18:04:07.265Z,99.90
2022-12-11T18:09:10.297Z,99.90
2022-12-11T18:14:17.162Z,99.90
2022-12-11T18:19:20.257Z,99.90
2022-12-11T18:24:23.040Z,99.90
2022-12-11T18:29:26.128Z,99.90
2022-12-11T18:34:28.436Z,99.90
2022-12-11T18:39:30.653Z,99.90
2022-12-11T18:44:32.988Z,99.90
2022-12-11T18:49:36.608Z,99.90
2022-12-11T18:54:38.996Z,99.90
2022-12-11T18:59:41.254Z,99.90
2022-12-11T19:04:43.497Z,99.90
2022-12-11T19:09:48.325Z,99.90
2022-12-11T19:14:50.845Z,99.90
2022-12-11T19:19:53.194Z,99.90
2022-12-11T19:24:55.402Z,99.90
2022-12-11T19:29:59.681Z,99.90
2022-12-11T19:35:01.886Z,99.90
2022-12-11T19:40:04.835Z,99.90
2022-12-11T19:45:07.491Z,99.90
2022-12-11T19:50:09.899Z,99.90
2022-12-11T19:55:13.484Z,99.90
2022-12-11T20:00:16.214Z,99.90
2022-12-11T20:05:18.897Z,99.90
2022-12-11T20:10:21.133Z,99.90
2022-12-11T20:15:24.257Z,99.90
2022-12-11T20:20:28.902Z,99.90
2022-12-11T20:25:31.199Z,99.90
2022-12-11T20:30:33.543Z,99.90
2022-12-11T20:35:35.822Z,99.90
2022-12-11T20:40:38.147Z,99.90
2022-12-11T20:45:40.545Z,99.90
2022-12-11T20:50:42.834Z,99.90
2022-12-11T20:55:45.086Z,99.90
2022-12-11T21:00:48.181Z,99.90
2022-12-11T21:05:50.681Z,99.90
2022-12-11T21:10:52.947Z,99.90
2022-12-11T21:15:56.800Z,99.90
2022-12-11T21:20:59.591Z,99.90
2022-12-11T21:26:03.116Z,99.90
2022-12-11T21:31:09.905Z,99.90
2022-12-11T21:36:13.828Z,99.90
2022-12-11T21:41:24.668Z,99.90
2022-12-11T21:46:29.250Z,99.90
2022-12-11T21:51:37.646Z,99.90
2022-12-11T21:56:42.067Z,99.90
2022-12-11T22:01:46.280Z,99.90
2022-12-11T22:06:48.613Z,99.90
2022-12-11T22:11:55.177Z,99.90
2022-12-11T22:17:00.629Z,99.90
2022-12-11T22:22:02.948Z,99.90
2022-12-11T22:27:05.801Z,99.90
2022-12-11T22:32:08.127Z,99.90
2022-12-11T22:37:10.353Z,99.90
2022-12-11T22:42:12.601Z,99.90
2022-12-11T22:47:15.063Z,99.90
2022-12-11T22:52:17.306Z,99.90
2022-12-11T22:57:19.690Z,99.90
2022-12-11T23:02:21.963Z,99.90
2022-12-11T23:07:24.257Z,99.90
2022-12-11T23:12:26.495Z,99.90
2022-12-11T23:17:28.813Z,99.90
2022-12-11T23:22:31.538Z,99.90
2022-12-11T23:27:33.822Z,99.90
2022-12-11T23:32:36.138Z,99.90
2022-12-11T23:37:39.338Z,99.90
2022-12-11T23:42:41.575Z,99.90
2022-12-11T23:47:44.419Z,99.90
2022-12-11T23:52:46.670Z,99.90
2022-12-11T23:57:48.923Z,99.90
